sensor_id;sensor_type;location;lat;lon;timestamp;P1;durP1;ratioP1;P2;durP2;ratioP2
572;SDS011;271;51.114;13.780;2023-03-01T00:02:26;34.78;;;14.27;;
572;SDS011;271;51.114;13.780;2023-03-01T00:05:14;29.67;;;13.70;;
572;SDS011;271;51.114;13.780;2023-03-01T00:08:02;31.25;;;13.88;;
572;SDS011;271;51.114;13.780;2023-03-01T00:10:59;30.77;;;12.30;;
572;SDS011;271;51.114;13.780;2023-03-01T00:13:50;29.35;;;12.10;;
572;SDS011;271;51.114;13.780;2023-03-01T00:16:39;29.42;;;12.55;;
572;SDS011;271;51.114;13.780;2023-03-01T00:19:28;28.63;;;13.52;;
572;SDS011;271;51.114;13.780;2023-03-01T00:22:18;30.65;;;13.43;;
572;SDS011;271;51.114;13.780;2023-03-01T00:25:06;28.83;;;13.23;;
572;SDS011;271;51.114;13.780;2023-03-01T00:27:54;31.45;;;13.00;;
572;SDS011;271;51.114;13.780;2023-03-01T00:30:43;30.80;;;13.45;;
572;SDS011;271;51.114;13.780;2023-03-01T00:33:31;26.70;;;11.55;;
572;SDS011;271;51.114;13.780;2023-03-01T00:36:18;29.52;;;11.68;;
572;SDS011;271;51.114;13.780;2023-03-01T00:39:09;27.25;;;12.63;;
572;SDS011;271;51.114;13.780;2023-03-01T00:41:59;32.95;;;13.10;;
572;SDS011;271;51.114;13.780;2023-03-01T00:44:47;28.48;;;12.70;;
572;SDS011;271;51.114;13.780;2023-03-01T00:47:36;31.80;;;13.73;;
572;SDS011;271;51.114;13.780;2023-03-01T00:50:23;29.60;;;13.13;;
572;SDS011;271;51.114;13.780;2023-03-01T00:53:12;35.22;;;13.70;;
572;SDS011;271;51.114;13.780;2023-03-01T00:56:00;28.70;;;13.43;;
572;SDS011;271;51.114;13.780;2023-03-01T00:58:47;29.30;;;12.55;;
572;SDS011;271;51.114;13.780;2023-03-01T01:01:35;31.50;;;12.77;;
572;SDS011;271;51.114;13.780;2023-03-01T01:04:24;29.75;;;12.90;;
572;SDS011;271;51.114;13.780;2023-03-01T01:07:12;29.67;;;12.57;;
572;SDS011;271;51.114;13.780;2023-03-01T01:10:00;29.17;;;12.60;;
572;SDS011;271;51.114;13.780;2023-03-01T01:12:48;27.90;;;12.00;;
572;SDS011;271;51.114;13.780;2023-03-01T01:15:36;29.27;;;12.30;;
572;SDS011;271;51.114;13.780;2023-03-01T01:18:24;26.35;;;10.50;;
572;SDS011;271;51.114;13.780;2023-03-01T01:21:13;29.40;;;11.73;;
572;SDS011;271;51.114;13.780;2023-03-01T01:24:02;32.33;;;12.00;;
572;SDS011;271;51.114;13.780;2023-03-01T01:26:51;30.75;;;13.13;;
572;SDS011;271;51.114;13.780;2023-03-01T01:29:38;26.00;;;11.60;;
572;SDS011;271;51.114;13.780;2023-03-01T01:32:27;27.70;;;12.20;;
572;SDS011;271;51.114;13.780;2023-03-01T01:35:15;30.27;;;13.10;;
572;SDS011;271;51.114;13.780;2023-03-01T01:38:04;29.77;;;12.57;;
572;SDS011;271;51.114;13.780;2023-03-01T01:40:52;31.52;;;13.30;;
572;SDS011;271;51.114;13.780;2023-03-01T01:43:40;31.20;;;13.05;;
572;SDS011;271;51.114;13.780;2023-03-01T01:46:30;30.50;;;12.63;;
572;SDS011;271;51.114;13.780;2023-03-01T01:49:21;31.88;;;13.32;;
572;SDS011;271;51.114;13.780;2023-03-01T01:52:16;29.08;;;12.35;;
572;SDS011;271;51.114;13.780;2023-03-01T01:55:08;27.65;;;12.35;;
572;SDS011;271;51.114;13.780;2023-03-01T01:57:58;28.50;;;12.52;;
572;SDS011;271;51.114;13.780;2023-03-01T02:00:49;29.05;;;11.85;;
572;SDS011;271;51.114;13.780;2023-03-01T02:03:37;31.30;;;12.48;;
572;SDS011;271;51.114;13.780;2023-03-01T02:06:28;30.60;;;12.63;;
572;SDS011;271;51.114;13.780;2023-03-01T02:09:19;29.95;;;13.35;;
572;SDS011;271;51.114;13.780;2023-03-01T02:12:10;28.27;;;13.23;;
572;SDS011;271;51.114;13.780;2023-03-01T02:14:57;31.67;;;12.00;;
572;SDS011;271;51.114;13.780;2023-03-01T02:17:45;28.10;;;11.15;;
572;SDS011;271;51.114;13.780;2023-03-01T02:20:35;30.38;;;11.25;;
572;SDS011;271;51.114;13.780;2023-03-01T02:23:31;28.00;;;12.00;;
572;SDS011;271;51.114;13.780;2023-03-01T02:26:23;28.60;;;11.68;;
572;SDS011;271;51.114;13.780;2023-03-01T02:29:18;29.02;;;12.27;;
572;SDS011;271;51.114;13.780;2023-03-01T02:32:06;27.30;;;11.45;;
572;SDS011;271;51.114;13.780;2023-03-01T02:34:54;28.50;;;11.93;;
572;SDS011;271;51.114;13.780;2023-03-01T02:37:42;31.10;;;12.10;;
572;SDS011;271;51.114;13.780;2023-03-01T02:40:31;30.13;;;13.18;;
572;SDS011;271;51.114;13.780;2023-03-01T02:43:23;29.75;;;12.60;;
572;SDS011;271;51.114;13.780;2023-03-01T02:46:18;26.02;;;11.75;;
572;SDS011;271;51.114;13.780;2023-03-01T02:49:16;29.80;;;12.80;;
572;SDS011;271;51.114;13.780;2023-03-01T02:55:27;29.50;;;12.50;;
572;SDS011;271;51.114;13.780;2023-03-01T02:58:15;29.88;;;12.52;;
572;SDS011;271;51.114;13.780;2023-03-01T03:01:02;28.20;;;12.52;;
572;SDS011;271;51.114;13.780;2023-03-01T03:03:52;32.00;;;13.43;;
572;SDS011;271;51.114;13.780;2023-03-01T03:06:39;29.60;;;12.80;;
572;SDS011;271;51.114;13.780;2023-03-01T03:09:27;29.20;;;12.80;;
572;SDS011;271;51.114;13.780;2023-03-01T03:12:15;29.42;;;12.50;;
572;SDS011;271;51.114;13.780;2023-03-01T03:15:03;34.15;;;14.05;;
572;SDS011;271;51.114;13.780;2023-03-01T03:17:55;33.42;;;13.90;;
572;SDS011;271;51.114;13.780;2023-03-01T03:20:44;30.27;;;11.57;;
572;SDS011;271;51.114;13.780;2023-03-01T03:23:32;31.98;;;13.23;;
572;SDS011;271;51.114;13.780;2023-03-01T03:26:21;27.92;;;11.80;;
572;SDS011;271;51.114;13.780;2023-03-01T03:29:08;29.90;;;12.82;;
572;SDS011;271;51.114;13.780;2023-03-01T03:31:56;29.52;;;11.90;;
572;SDS011;271;51.114;13.780;2023-03-01T03:34:44;30.58;;;12.00;;
572;SDS011;271;51.114;13.780;2023-03-01T03:37:33;29.30;;;11.57;;
572;SDS011;271;51.114;13.780;2023-03-01T03:40:39;30.50;;;12.65;;
572;SDS011;271;51.114;13.780;2023-03-01T03:43:27;29.65;;;13.98;;
572;SDS011;271;51.114;13.780;2023-03-01T03:46:16;31.33;;;12.77;;
572;SDS011;271;51.114;13.780;2023-03-01T03:49:04;29.35;;;12.45;;
572;SDS011;271;51.114;13.780;2023-03-01T03:51:52;30.25;;;12.73;;
572;SDS011;271;51.114;13.780;2023-03-01T03:54:41;30.83;;;13.02;;
572;SDS011;271;51.114;13.780;2023-03-01T03:57:29;30.98;;;13.55;;
572;SDS011;271;51.114;13.780;2023-03-01T04:00:17;30.52;;;12.57;;
572;SDS011;271;51.114;13.780;2023-03-01T04:03:06;29.00;;;12.27;;
572;SDS011;271;51.114;13.780;2023-03-01T04:05:56;29.35;;;11.75;;
572;SDS011;271;51.114;13.780;2023-03-01T04:08:44;28.35;;;12.13;;
572;SDS011;271;51.114;13.780;2023-03-01T04:11:33;29.92;;;13.10;;
572;SDS011;271;51.114;13.780;2023-03-01T04:14:21;35.50;;;12.82;;
572;SDS011;271;51.114;13.780;2023-03-01T04:17:09;32.22;;;13.73;;
572;SDS011;271;51.114;13.780;2023-03-01T04:19:56;29.33;;;12.90;;
572;SDS011;271;51.114;13.780;2023-03-01T04:22:44;30.02;;;13.20;;
572;SDS011;271;51.114;13.780;2023-03-01T04:25:33;28.55;;;11.95;;
572;SDS011;271;51.114;13.780;2023-03-01T04:28:22;32.17;;;13.90;;
572;SDS011;271;51.114;13.780;2023-03-01T04:31:12;31.02;;;13.20;;
572;SDS011;271;51.114;13.780;2023-03-01T04:34:02;30.10;;;12.82;;
572;SDS011;271;51.114;13.780;2023-03-01T04:36:49;29.83;;;13.65;;
572;SDS011;271;51.114;13.780;2023-03-01T04:39:37;29.70;;;12.98;;
572;SDS011;271;51.114;13.780;2023-03-01T04:42:31;27.92;;;12.00;;
572;SDS011;271;51.114;13.780;2023-03-01T04:45:20;30.17;;;12.13;;
572;SDS011;271;51.114;13.780;2023-03-01T04:48:08;30.55;;;13.23;;
572;SDS011;271;51.114;13.780;2023-03-01T04:50:56;32.67;;;13.10;;
572;SDS011;271;51.114;13.780;2023-03-01T04:53:43;29.52;;;13.90;;
572;SDS011;271;51.114;13.780;2023-03-01T04:56:31;30.50;;;12.95;;
572;SDS011;271;51.114;13.780;2023-03-01T04:59:19;31.42;;;14.23;;
572;SDS011;271;51.114;13.780;2023-03-01T05:02:09;29.05;;;12.15;;
572;SDS011;271;51.114;13.780;2023-03-01T05:04:57;29.23;;;13.15;;
572;SDS011;271;51.114;13.780;2023-03-01T05:07:44;31.33;;;14.35;;
572;SDS011;271;51.114;13.780;2023-03-01T05:10:33;31.45;;;14.77;;
572;SDS011;271;51.114;13.780;2023-03-01T05:13:23;33.90;;;14.73;;
572;SDS011;271;51.114;13.780;2023-03-01T05:16:11;31.40;;;13.80;;
572;SDS011;271;51.114;13.780;2023-03-01T05:19:01;30.05;;;13.45;;
572;SDS011;271;51.114;13.780;2023-03-01T05:21:57;29.45;;;13.68;;
572;SDS011;271;51.114;13.780;2023-03-01T05:24:51;31.77;;;13.52;;
572;SDS011;271;51.114;13.780;2023-03-01T05:27:39;34.22;;;15.18;;
572;SDS011;271;51.114;13.780;2023-03-01T05:30:27;28.20;;;12.98;;
572;SDS011;271;51.114;13.780;2023-03-01T05:33:15;27.80;;;13.20;;
572;SDS011;271;51.114;13.780;2023-03-01T05:36:05;35.03;;;14.98;;
572;SDS011;271;51.114;13.780;2023-03-01T05:38:53;33.42;;;14.43;;
572;SDS011;271;51.114;13.780;2023-03-01T05:41:41;38.65;;;19.23;;
572;SDS011;271;51.114;13.780;2023-03-01T05:44:29;35.45;;;15.52;;
572;SDS011;271;51.114;13.780;2023-03-01T05:47:17;36.20;;;17.55;;
572;SDS011;271;51.114;13.780;2023-03-01T05:50:07;33.97;;;20.05;;
572;SDS011;271;51.114;13.780;2023-03-01T05:53:00;39.25;;;22.10;;
572;SDS011;271;51.114;13.780;2023-03-01T05:55:51;36.67;;;21.40;;
572;SDS011;271;51.114;13.780;2023-03-01T05:58:39;37.45;;;18.08;;
572;SDS011;271;51.114;13.780;2023-03-01T06:01:26;49.05;;;21.38;;
572;SDS011;271;51.114;13.780;2023-03-01T06:04:15;36.28;;;18.80;;
572;SDS011;271;51.114;13.780;2023-03-01T06:07:02;31.90;;;14.80;;
572;SDS011;271;51.114;13.780;2023-03-01T06:09:51;31.48;;;16.05;;
572;SDS011;271;51.114;13.780;2023-03-01T06:12:39;34.10;;;15.07;;
572;SDS011;271;51.114;13.780;2023-03-01T06:15:29;30.65;;;13.20;;
572;SDS011;271;51.114;13.780;2023-03-01T06:18:17;31.98;;;14.50;;
572;SDS011;271;51.114;13.780;2023-03-01T06:21:04;32.80;;;14.10;;
572;SDS011;271;51.114;13.780;2023-03-01T06:23:53;32.53;;;14.82;;
572;SDS011;271;51.114;13.780;2023-03-01T06:26:42;31.38;;;14.05;;
572;SDS011;271;51.114;13.780;2023-03-01T06:29:30;34.40;;;15.38;;
572;SDS011;271;51.114;13.780;2023-03-01T06:32:18;32.75;;;14.27;;
572;SDS011;271;51.114;13.780;2023-03-01T06:35:06;33.20;;;14.75;;
572;SDS011;271;51.114;13.780;2023-03-01T06:37:54;30.05;;;13.25;;
572;SDS011;271;51.114;13.780;2023-03-01T06:40:43;29.75;;;13.02;;
572;SDS011;271;51.114;13.780;2023-03-01T06:43:32;30.95;;;13.82;;
572;SDS011;271;51.114;13.780;2023-03-01T06:46:19;32.78;;;14.30;;
572;SDS011;271;51.114;13.780;2023-03-01T06:49:07;30.00;;;13.90;;
572;SDS011;271;51.114;13.780;2023-03-01T06:51:55;33.97;;;15.68;;
572;SDS011;271;51.114;13.780;2023-03-01T06:54:42;29.95;;;13.35;;
572;SDS011;271;51.114;13.780;2023-03-01T06:57:30;31.50;;;14.30;;
572;SDS011;271;51.114;13.780;2023-03-01T07:00:20;30.33;;;13.90;;
572;SDS011;271;51.114;13.780;2023-03-01T07:03:08;30.73;;;13.32;;
572;SDS011;271;51.114;13.780;2023-03-01T07:05:56;31.60;;;14.20;;
572;SDS011;271;51.114;13.780;2023-03-01T07:08:43;34.85;;;14.13;;
572;SDS011;271;51.114;13.780;2023-03-01T07:11:31;31.13;;;14.13;;
572;SDS011;271;51.114;13.780;2023-03-01T07:14:19;31.45;;;14.35;;
572;SDS011;271;51.114;13.780;2023-03-01T07:17:08;30.10;;;13.43;;
572;SDS011;271;51.114;13.780;2023-03-01T07:19:56;32.10;;;13.82;;
572;SDS011;271;51.114;13.780;2023-03-01T07:22:43;30.83;;;13.82;;
572;SDS011;271;51.114;13.780;2023-03-01T07:25:31;34.65;;;16.55;;
572;SDS011;271;51.114;13.780;2023-03-01T07:28:19;31.75;;;14.68;;
572;SDS011;271;51.114;13.780;2023-03-01T07:31:07;34.90;;;16.17;;
572;SDS011;271;51.114;13.780;2023-03-01T07:33:56;34.03;;;16.00;;
572;SDS011;271;51.114;13.780;2023-03-01T07:36:44;35.38;;;17.02;;
572;SDS011;271;51.114;13.780;2023-03-01T07:39:31;37.67;;;15.88;;
572;SDS011;271;51.114;13.780;2023-03-01T07:42:19;38.75;;;20.38;;
572;SDS011;271;51.114;13.780;2023-03-01T07:45:07;37.67;;;18.30;;
572;SDS011;271;51.114;13.780;2023-03-01T07:47:55;40.05;;;19.05;;
572;SDS011;271;51.114;13.780;2023-03-01T07:50:44;44.03;;;22.63;;
572;SDS011;271;51.114;13.780;2023-03-01T07:53:32;46.17;;;21.42;;
572;SDS011;271;51.114;13.780;2023-03-01T07:56:20;41.63;;;22.00;;
572;SDS011;271;51.114;13.780;2023-03-01T07:59:08;39.10;;;19.58;;
572;SDS011;271;51.114;13.780;2023-03-01T08:01:56;38.50;;;20.17;;
572;SDS011;271;51.114;13.780;2023-03-01T08:04:44;37.67;;;18.20;;
572;SDS011;271;51.114;13.780;2023-03-01T08:07:33;36.72;;;18.25;;
572;SDS011;271;51.114;13.780;2023-03-01T08:10:21;37.28;;;17.38;;
572;SDS011;271;51.114;13.780;2023-03-01T08:13:09;40.90;;;20.75;;
572;SDS011;271;51.114;13.780;2023-03-01T08:16:00;39.42;;;18.15;;
572;SDS011;271;51.114;13.780;2023-03-01T08:18:48;38.85;;;19.75;;
572;SDS011;271;51.114;13.780;2023-03-01T08:21:36;42.58;;;20.02;;
572;SDS011;271;51.114;13.780;2023-03-01T08:24:25;39.90;;;19.63;;
572;SDS011;271;51.114;13.780;2023-03-01T08:27:14;41.28;;;20.40;;
572;SDS011;271;51.114;13.780;2023-03-01T08:30:02;38.35;;;18.00;;
572;SDS011;271;51.114;13.780;2023-03-01T08:32:51;34.22;;;16.90;;
572;SDS011;271;51.114;13.780;2023-03-01T08:35:39;41.85;;;18.90;;
572;SDS011;271;51.114;13.780;2023-03-01T08:38:26;36.30;;;19.20;;
572;SDS011;271;51.114;13.780;2023-03-01T08:41:15;34.95;;;17.30;;
572;SDS011;271;51.114;13.780;2023-03-01T08:44:03;40.10;;;19.85;;
572;SDS011;271;51.114;13.780;2023-03-01T08:46:51;35.70;;;17.27;;
572;SDS011;271;51.114;13.780;2023-03-01T08:49:41;36.53;;;17.25;;
572;SDS011;271;51.114;13.780;2023-03-01T08:52:29;37.47;;;18.25;;
572;SDS011;271;51.114;13.780;2023-03-01T08:55:16;34.05;;;17.15;;
572;SDS011;271;51.114;13.780;2023-03-01T08:58:06;39.30;;;16.20;;
572;SDS011;271;51.114;13.780;2023-03-01T09:00:53;33.65;;;15.23;;
572;SDS011;271;51.114;13.780;2023-03-01T09:03:42;38.15;;;16.35;;
572;SDS011;271;51.114;13.780;2023-03-01T09:06:30;31.75;;;15.27;;
572;SDS011;271;51.114;13.780;2023-03-01T09:09:19;31.27;;;14.65;;
572;SDS011;271;51.114;13.780;2023-03-01T09:12:06;32.63;;;15.35;;
572;SDS011;271;51.114;13.780;2023-03-01T09:14:56;32.42;;;15.32;;
572;SDS011;271;51.114;13.780;2023-03-01T09:17:44;34.58;;;15.80;;
572;SDS011;271;51.114;13.780;2023-03-01T09:27:12;28.80;;;13.65;;
572;SDS011;271;51.114;13.780;2023-03-01T09:30:01;30.60;;;13.77;;
572;SDS011;271;51.114;13.780;2023-03-01T09:32:56;31.73;;;14.80;;
572;SDS011;271;51.114;13.780;2023-03-01T09:35:46;30.13;;;14.60;;
572;SDS011;271;51.114;13.780;2023-03-01T09:38:41;30.15;;;14.68;;
572;SDS011;271;51.114;13.780;2023-03-01T09:41:34;31.23;;;16.35;;
572;SDS011;271;51.114;13.780;2023-03-01T09:44:29;34.80;;;16.90;;
572;SDS011;271;51.114;13.780;2023-03-01T09:47:24;30.88;;;15.10;;
572;SDS011;271;51.114;13.780;2023-03-01T09:50:15;31.80;;;14.40;;
572;SDS011;271;51.114;13.780;2023-03-01T09:53:05;31.50;;;14.40;;
572;SDS011;271;51.114;13.780;2023-03-01T09:55:59;30.40;;;16.20;;
572;SDS011;271;51.114;13.780;2023-03-01T09:58:53;30.23;;;13.70;;
572;SDS011;271;51.114;13.780;2023-03-01T10:01:48;29.58;;;14.10;;
572;SDS011;271;51.114;13.780;2023-03-01T10:04:44;31.88;;;14.85;;
572;SDS011;271;51.114;13.780;2023-03-01T10:07:38;30.75;;;14.45;;
572;SDS011;271;51.114;13.780;2023-03-01T10:45:33;28.35;;;13.68;;
572;SDS011;271;51.114;13.780;2023-03-01T10:56:11;27.38;;;13.65;;
572;SDS011;271;51.114;13.780;2023-03-01T10:59:48;26.20;;;13.07;;
572;SDS011;271;51.114;13.780;2023-03-01T11:07:12;28.10;;;12.85;;
572;SDS011;271;51.114;13.780;2023-03-01T11:21:31;28.20;;;11.85;;
572;SDS011;271;51.114;13.780;2023-03-01T11:24:44;30.92;;;12.85;;
572;SDS011;271;51.114;13.780;2023-03-01T11:28:17;26.40;;;12.45;;
572;SDS011;271;51.114;13.780;2023-03-01T11:31:08;27.45;;;13.15;;
572;SDS011;271;51.114;13.780;2023-03-01T11:34:00;27.90;;;12.48;;
572;SDS011;271;51.114;13.780;2023-03-01T11:36:56;24.80;;;11.05;;
572;SDS011;271;51.114;13.780;2023-03-01T11:39:51;28.92;;;13.68;;
572;SDS011;271;51.114;13.780;2023-03-01T11:42:48;25.27;;;11.13;;
572;SDS011;271;51.114;13.780;2023-03-01T11:45:47;26.73;;;10.68;;
572;SDS011;271;51.114;13.780;2023-03-01T11:48:56;26.00;;;11.35;;
572;SDS011;271;51.114;13.780;2023-03-01T11:51:58;27.25;;;11.40;;
572;SDS011;271;51.114;13.780;2023-03-01T11:55:03;27.55;;;12.73;;
572;SDS011;271;51.114;13.780;2023-03-01T12:01:19;27.20;;;14.02;;
572;SDS011;271;51.114;13.780;2023-03-01T12:07:41;30.30;;;14.35;;
572;SDS011;271;51.114;13.780;2023-03-01T12:10:42;29.05;;;13.90;;
572;SDS011;271;51.114;13.780;2023-03-01T12:13:45;31.15;;;14.90;;
572;SDS011;271;51.114;13.780;2023-03-01T12:17:04;29.73;;;14.10;;
572;SDS011;271;51.114;13.780;2023-03-01T12:20:14;30.75;;;15.02;;
572;SDS011;271;51.114;13.780;2023-03-01T12:23:16;30.63;;;15.57;;
572;SDS011;271;51.114;13.780;2023-03-01T12:26:29;28.02;;;13.77;;
572;SDS011;271;51.114;13.780;2023-03-01T12:29:24;27.60;;;12.90;;
572;SDS011;271;51.114;13.780;2023-03-01T12:32:24;29.88;;;13.88;;
572;SDS011;271;51.114;13.780;2023-03-01T12:36:31;29.13;;;13.68;;
572;SDS011;271;51.114;13.780;2023-03-01T12:39:47;29.80;;;14.13;;
572;SDS011;271;51.114;13.780;2023-03-01T12:46:42;24.63;;;11.18;;
572;SDS011;271;51.114;13.780;2023-03-01T12:49:54;28.83;;;13.13;;
572;SDS011;271;51.114;13.780;2023-03-01T12:52:55;28.05;;;12.38;;
572;SDS011;271;51.114;13.780;2023-03-01T13:02:31;27.42;;;12.43;;
572;SDS011;271;51.114;13.780;2023-03-01T13:10:20;29.35;;;13.77;;
572;SDS011;271;51.114;13.780;2023-03-01T13:12:46;26.85;;;11.15;;
572;SDS011;271;51.114;13.780;2023-03-01T13:16:38;27.13;;;12.30;;
572;SDS011;271;51.114;13.780;2023-03-01T13:19:30;27.05;;;12.57;;
572;SDS011;271;51.114;13.780;2023-03-01T13:22:43;25.50;;;10.48;;
572;SDS011;271;51.114;13.780;2023-03-01T13:28:53;29.48;;;12.95;;
572;SDS011;271;51.114;13.780;2023-03-01T13:34:50;25.33;;;11.95;;
572;SDS011;271;51.114;13.780;2023-03-01T13:37:42;30.20;;;13.82;;
572;SDS011;271;51.114;13.780;2023-03-01T13:43:46;27.00;;;12.40;;
572;SDS011;271;51.114;13.780;2023-03-01T13:46:36;26.03;;;12.53;;
572;SDS011;271;51.114;13.780;2023-03-01T13:49:26;29.23;;;13.43;;
572;SDS011;271;51.114;13.780;2023-03-01T13:52:27;27.70;;;13.77;;
572;SDS011;271;51.114;13.780;2023-03-01T13:55:23;26.40;;;12.30;;
572;SDS011;271;51.114;13.780;2023-03-01T13:58:15;32.63;;;14.07;;
572;SDS011;271;51.114;13.780;2023-03-01T14:01:07;28.50;;;12.70;;
572;SDS011;271;51.114;13.780;2023-03-01T14:04:18;30.50;;;13.47;;
572;SDS011;271;51.114;13.780;2023-03-01T14:07:11;29.37;;;14.77;;
572;SDS011;271;51.114;13.780;2023-03-01T14:10:00;29.65;;;13.80;;
572;SDS011;271;51.114;13.780;2023-03-01T14:12:50;30.63;;;13.57;;
572;SDS011;271;51.114;13.780;2023-03-01T14:15:42;28.08;;;13.68;;
572;SDS011;271;51.114;13.780;2023-03-01T14:18:38;29.60;;;14.27;;
572;SDS011;271;51.114;13.780;2023-03-01T14:21:34;27.85;;;12.40;;
572;SDS011;271;51.114;13.780;2023-03-01T14:24:22;27.70;;;13.27;;
572;SDS011;271;51.114;13.780;2023-03-01T14:27:11;30.08;;;13.80;;
572;SDS011;271;51.114;13.780;2023-03-01T14:30:00;27.58;;;12.80;;
572;SDS011;271;51.114;13.780;2023-03-01T14:32:52;27.33;;;13.10;;
572;SDS011;271;51.114;13.780;2023-03-01T14:35:40;29.70;;;13.10;;
572;SDS011;271;51.114;13.780;2023-03-01T14:38:34;26.17;;;12.00;;
572;SDS011;271;51.114;13.780;2023-03-01T14:41:25;32.03;;;12.68;;
572;SDS011;271;51.114;13.780;2023-03-01T14:44:16;30.98;;;13.90;;
572;SDS011;271;51.114;13.780;2023-03-01T14:47:10;27.50;;;12.68;;
572;SDS011;271;51.114;13.780;2023-03-01T14:50:01;28.60;;;12.55;;
572;SDS011;271;51.114;13.780;2023-03-01T14:52:52;28.05;;;12.60;;
572;SDS011;271;51.114;13.780;2023-03-01T14:55:44;30.63;;;13.52;;
572;SDS011;271;51.114;13.780;2023-03-01T14:58:34;27.90;;;12.57;;
572;SDS011;271;51.114;13.780;2023-03-01T15:01:22;27.13;;;12.50;;
572;SDS011;271;51.114;13.780;2023-03-01T15:04:11;26.13;;;11.50;;
572;SDS011;271;51.114;13.780;2023-03-01T15:07:00;25.17;;;11.38;;
572;SDS011;271;51.114;13.780;2023-03-01T15:09:50;27.52;;;11.70;;
572;SDS011;271;51.114;13.780;2023-03-01T15:12:40;27.30;;;11.77;;
572;SDS011;271;51.114;13.780;2023-03-01T15:15:32;24.95;;;10.52;;
572;SDS011;271;51.114;13.780;2023-03-01T15:18:22;26.65;;;11.60;;
572;SDS011;271;51.114;13.780;2023-03-01T15:21:16;28.98;;;12.23;;
572;SDS011;271;51.114;13.780;2023-03-01T15:24:06;26.95;;;12.38;;
572;SDS011;271;51.114;13.780;2023-03-01T15:27:12;26.55;;;10.68;;
572;SDS011;271;51.114;13.780;2023-03-01T15:30:06;28.92;;;10.48;;
572;SDS011;271;51.114;13.780;2023-03-01T15:33:17;25.52;;;10.90;;
572;SDS011;271;51.114;13.780;2023-03-01T15:36:30;25.23;;;11.48;;
572;SDS011;271;51.114;13.780;2023-03-01T15:39:32;26.83;;;10.65;;
572;SDS011;271;51.114;13.780;2023-03-01T15:42:36;26.73;;;10.90;;
572;SDS011;271;51.114;13.780;2023-03-01T15:45:27;27.65;;;12.55;;
572;SDS011;271;51.114;13.780;2023-03-01T15:48:17;26.80;;;11.00;;
572;SDS011;271;51.114;13.780;2023-03-01T15:51:09;27.60;;;10.82;;
572;SDS011;271;51.114;13.780;2023-03-01T15:54:02;26.08;;;11.00;;
572;SDS011;271;51.114;13.780;2023-03-01T15:56:53;24.00;;;9.25;;
572;SDS011;271;51.114;13.780;2023-03-01T15:59:41;26.27;;;10.50;;
572;SDS011;271;51.114;13.780;2023-03-01T16:02:31;25.90;;;10.73;;
572;SDS011;271;51.114;13.780;2023-03-01T16:05:20;25.63;;;10.48;;
572;SDS011;271;51.114;13.780;2023-03-01T16:08:10;25.75;;;10.40;;
572;SDS011;271;51.114;13.780;2023-03-01T16:10:58;27.20;;;11.65;;
572;SDS011;271;51.114;13.780;2023-03-01T16:13:49;24.88;;;9.82;;
572;SDS011;271;51.114;13.780;2023-03-01T16:16:36;25.23;;;9.35;;
572;SDS011;271;51.114;13.780;2023-03-01T16:19:26;25.70;;;10.55;;
572;SDS011;271;51.114;13.780;2023-03-01T16:22:13;24.58;;;9.77;;
572;SDS011;271;51.114;13.780;2023-03-01T16:25:01;24.00;;;9.35;;
572;SDS011;271;51.114;13.780;2023-03-01T16:27:49;25.02;;;10.93;;
572;SDS011;271;51.114;13.780;2023-03-01T16:30:38;23.92;;;9.18;;
572;SDS011;271;51.114;13.780;2023-03-01T16:33:26;27.45;;;10.15;;
572;SDS011;271;51.114;13.780;2023-03-01T16:36:15;24.80;;;10.27;;
572;SDS011;271;51.114;13.780;2023-03-01T16:39:04;24.27;;;9.40;;
572;SDS011;271;51.114;13.780;2023-03-01T16:41:53;25.58;;;9.40;;
572;SDS011;271;51.114;13.780;2023-03-01T16:44:41;26.40;;;11.32;;
572;SDS011;271;51.114;13.780;2023-03-01T16:47:29;26.88;;;13.05;;
572;SDS011;271;51.114;13.780;2023-03-01T16:50:17;26.77;;;12.65;;
572;SDS011;271;51.114;13.780;2023-03-01T16:53:06;28.00;;;12.40;;
572;SDS011;271;51.114;13.780;2023-03-01T16:55:54;26.42;;;11.93;;
572;SDS011;271;51.114;13.780;2023-03-01T16:58:42;26.90;;;11.45;;
572;SDS011;271;51.114;13.780;2023-03-01T17:01:31;26.02;;;10.68;;
572;SDS011;271;51.114;13.780;2023-03-01T17:04:23;25.33;;;10.05;;
572;SDS011;271;51.114;13.780;2023-03-01T17:07:10;25.85;;;11.77;;
572;SDS011;271;51.114;13.780;2023-03-01T17:10:01;25.65;;;10.05;;
572;SDS011;271;51.114;13.780;2023-03-01T17:12:50;26.60;;;10.10;;
572;SDS011;271;51.114;13.780;2023-03-01T17:15:38;29.60;;;11.35;;
572;SDS011;271;51.114;13.780;2023-03-01T17:18:27;27.02;;;10.85;;
572;SDS011;271;51.114;13.780;2023-03-01T17:21:16;25.98;;;10.43;;
572;SDS011;271;51.114;13.780;2023-03-01T17:24:04;24.80;;;10.63;;
572;SDS011;271;51.114;13.780;2023-03-01T17:26:54;26.50;;;10.10;;
572;SDS011;271;51.114;13.780;2023-03-01T17:29:42;24.00;;;8.95;;
572;SDS011;271;51.114;13.780;2023-03-01T17:32:30;25.75;;;9.07;;
572;SDS011;271;51.114;13.780;2023-03-01T17:35:18;24.35;;;9.20;;
572;SDS011;271;51.114;13.780;2023-03-01T17:38:06;26.00;;;9.60;;
572;SDS011;271;51.114;13.780;2023-03-01T17:40:56;24.85;;;10.05;;
572;SDS011;271;51.114;13.780;2023-03-01T17:43:49;23.33;;;9.20;;
572;SDS011;271;51.114;13.780;2023-03-01T17:46:37;26.55;;;9.55;;
572;SDS011;271;51.114;13.780;2023-03-01T17:49:25;28.00;;;11.73;;
572;SDS011;271;51.114;13.780;2023-03-01T17:52:12;39.28;;;20.75;;
572;SDS011;271;51.114;13.780;2023-03-01T17:55:00;33.03;;;16.05;;
572;SDS011;271;51.114;13.780;2023-03-01T17:57:48;24.15;;;9.57;;
572;SDS011;271;51.114;13.780;2023-03-01T18:00:37;28.42;;;11.13;;
572;SDS011;271;51.114;13.780;2023-03-01T18:03:25;27.13;;;12.40;;
572;SDS011;271;51.114;13.780;2023-03-01T18:06:13;27.40;;;11.48;;
572;SDS011;271;51.114;13.780;2023-03-01T18:09:02;27.55;;;12.80;;
572;SDS011;271;51.114;13.780;2023-03-01T18:11:50;25.77;;;12.70;;
572;SDS011;271;51.114;13.780;2023-03-01T18:14:38;38.33;;;22.98;;
572;SDS011;271;51.114;13.780;2023-03-01T18:17:28;33.33;;;16.30;;
572;SDS011;271;51.114;13.780;2023-03-01T18:20:16;28.55;;;13.30;;
572;SDS011;271;51.114;13.780;2023-03-01T18:23:04;29.27;;;11.43;;
572;SDS011;271;51.114;13.780;2023-03-01T18:25:56;28.38;;;10.55;;
572;SDS011;271;51.114;13.780;2023-03-01T18:28:45;26.55;;;10.10;;
572;SDS011;271;51.114;13.780;2023-03-01T18:31:33;24.60;;;9.43;;
572;SDS011;271;51.114;13.780;2023-03-01T18:34:22;26.98;;;9.40;;
572;SDS011;271;51.114;13.780;2023-03-01T18:37:10;26.20;;;11.15;;
572;SDS011;271;51.114;13.780;2023-03-01T18:39:57;28.58;;;12.50;;
572;SDS011;271;51.114;13.780;2023-03-01T18:42:45;31.13;;;12.45;;
572;SDS011;271;51.114;13.780;2023-03-01T18:45:33;27.27;;;12.27;;
572;SDS011;271;51.114;13.780;2023-03-01T18:48:21;26.83;;;11.25;;
572;SDS011;271;51.114;13.780;2023-03-01T18:51:11;28.83;;;10.40;;
572;SDS011;271;51.114;13.780;2023-03-01T18:54:00;30.38;;;10.85;;
572;SDS011;271;51.114;13.780;2023-03-01T18:56:48;27.77;;;9.85;;
572;SDS011;271;51.114;13.780;2023-03-01T18:59:36;27.60;;;10.23;;
572;SDS011;271;51.114;13.780;2023-03-01T19:02:23;28.98;;;10.13;;
572;SDS011;271;51.114;13.780;2023-03-01T19:05:13;27.60;;;10.10;;
572;SDS011;271;51.114;13.780;2023-03-01T19:08:03;27.48;;;10.60;;
572;SDS011;271;51.114;13.780;2023-03-01T19:10:54;59.15;;;41.35;;